Station Historical Data
Daily Summary for February 22, 2017 Units:  Metric    English   Both
« Previous Day
Next Day »
Daily Weekly Monthly Yearly Custom
  High: Low: Average:
Temperature: 15.2 °C 4.6 °C 10.4 °C
Dew Point: 11.1 °C 3.2 °C 7.7 °C
Humidity: 94% 64% 84%
Wind Speed: 12.9km/h 0km/h 3.2km/h
Wind Gust: 24.1km/h - -
Wind- - SW
Pressure: 1014.1 hPa 1007.3 hPa -
Precipitation: 0 mm    
Historical Graphs
 
 
Tabular Data for February 22, 2017
Time Temperature Dew Point Pressure Wind Wind Speed Wind Gust Humidity Rainfall Rate (Hourly)
00:04 7.8 °C 5.9 °C 1014.1 hPa Calm     88% 0 mm
00:09 7.8 °C 5.9 °C 1014.1 hPa Calm     88% 0 mm
00:14 7.8 °C 5.9 °C 1014.1 hPa Calm     88% 0 mm
00:19 7.8 °C 5.9 °C 1014.1 hPa Calm     88% 0 mm
00:24 7.9 °C 6 °C 1014.1 hPa Calm     88% 0 mm
00:29 7.9 °C 6.1 °C 1014.1 hPa Calm     88% 0 mm
00:34 8 °C 6.1 °C 1014.1 hPa Calm     88% 0 mm
00:39 8.1 °C 6.2 °C 1014.1 hPa Calm     88% 0 mm
00:44 8.1 °C 6.2 °C 1014.1 hPa Calm     88% 0 mm
00:49 8 °C 6.1 °C 1014.1 hPa Calm     88% 0 mm
00:54 8.1 °C 6.2 °C 1014.1 hPa Calm     88% 0 mm
00:59 8.1 °C 6.2 °C 1014.1 hPa Calm     88% 0 mm
01:04 8.1 °C 6.2 °C 1013.8 hPa Calm     88% 0 mm
01:09 8.1 °C 6.2 °C 1013.8 hPa Calm     88% 0 mm
01:14 8.1 °C 6.2 °C 1013.8 hPa Calm     88% 0 mm
01:19 8.1 °C 6.2 °C 1013.8 hPa Calm     88% 0 mm
01:24 8.1 °C 6.2 °C 1013.8 hPa Calm     88% 0 mm
01:29 8.1 °C 6.2 °C 1013.4 hPa Calm     88% 0 mm
01:34 7.9 °C 6 °C 1013.4 hPa Calm     88% 0 mm
01:39 7.7 °C 5.8 °C 1013.4 hPa Calm     88% 0 mm
01:44 7.6 °C 5.7 °C 1013.4 hPa Calm     88% 0 mm
01:49 7.3 °C 5.7 °C 1013.4 hPa Calm     89% 0 mm
01:54 7.2 °C 5.5 °C 1013.4 hPa Calm     89% 0 mm
01:59 7.2 °C 5.6 °C 1013.4 hPa Calm     90% 0 mm
02:04 7.2 °C 5.6 °C 1013.4 hPa Calm     90% 0 mm
02:09 6.9 °C 5.4 °C 1013.1 hPa Calm     90% 0 mm
02:14 6.7 °C 5.2 °C 1013.4 hPa Calm     90% 0 mm
02:19 6.5 °C 5 °C 1013.1 hPa Calm     90% 0 mm
02:24 6.4 °C 4.9 °C 1013.4 hPa Calm     90% 0 mm
02:29 6.4 °C 5 °C 1013.4 hPa Calm     91% 0 mm
02:34 6.3 °C 4.9 °C 1013.4 hPa Calm     91% 0 mm
02:39 6.3 °C 5.1 °C 1013.4 hPa Calm     92% 0 mm
02:44 6.2 °C 4.9 °C 1013.4 hPa Calm     91% 0 mm
02:49 6.3 °C 4.9 °C 1013.4 hPa Calm     91% 0 mm
02:54 6.2 °C 5 °C 1013.1 hPa Calm     92% 0 mm
02:59 6.2 °C 4.9 °C 1013.4 hPa Calm     92% 0 mm
03:04 6.1 °C 4.9 °C 1013.1 hPa Calm     92% 0 mm
03:09 5.9 °C 4.7 °C 1013.1 hPa Calm     92% 0 mm
03:14 5.9 °C 4.7 °C 1013.1 hPa Calm     92% 0 mm
03:19 5.9 °C 4.7 °C 1013.1 hPa Calm     92% 0 mm
03:24 5.7 °C 4.4 °C 1013.1 hPa Calm     92% 0 mm
03:29 5.3 °C 4.1 °C 1013.1 hPa Calm     92% 0 mm
03:34 5.2 °C 4.1 °C 1013.1 hPa Calm     92% 0 mm
03:39 5.2 °C 4.1 °C 1013.1 hPa Calm     93% 0 mm
03:44 5.1 °C 3.9 °C 1013.4 hPa Calm     92% 0 mm
03:49 5.4 °C 4.3 °C 1013.1 hPa Calm     93% 0 mm
03:54 5.4 °C 4.3 °C 1013.1 hPa Calm     93% 0 mm
03:59 5.4 °C 4.3 °C 1013.1 hPa Calm     93% 0 mm
04:04 5.5 °C 4.4 °C 1013.1 hPa Calm     93% 0 mm
04:09 5.5 °C 4.4 °C 1013.1 hPa Calm     93% 0 mm
04:14 5.5 °C 4.4 °C 1013.4 hPa Calm     93% 0 mm
04:19 5.5 °C 4.4 °C 1013.4 hPa Calm     93% 0 mm
04:24 5.3 °C 4.3 °C 1013.1 hPa Calm     93% 0 mm
04:29 5.4 °C 4.3 °C 1013.1 hPa Calm     93% 0 mm
04:34 5.5 °C 4.4 °C 1013.1 hPa Calm     93% 0 mm
04:39 5.4 °C 4.4 °C 1013.1 hPa Calm     93% 0 mm
04:44 5.4 °C 4.3 °C 1013.1 hPa Calm     93% 0 mm
04:49 5.2 °C 4.1 °C 1013.1 hPa Calm     93% 0 mm
04:54 5.2 °C 4.3 °C 1013.1 hPa Calm     94% 0 mm
04:59 5.3 °C 4.3 °C 1013.1 hPa Calm     93% 0 mm
05:04 5.4 °C 4.6 °C 1013.1 hPa Calm   4.8 km/h 94% 0 mm
05:09 5.5 °C 4.6 °C 1013.1 hPa ESE 1.6 km/h 4.8 km/h 94% 0 mm
05:14 5.7 °C 4.8 °C 1012.8 hPa Calm     94% 0 mm
05:19 5.8 °C 4.9 °C 1012.8 hPa ESE 1.6 km/h 4.8 km/h 94% 0 mm
05:24 5.9 °C 5 °C 1012.8 hPa Calm   3.2 km/h 94% 0 mm
05:29 5.9 °C 4.8 °C 1012.8 hPa Calm     93% 0 mm
05:34 5.8 °C 4.7 °C 1012.8 hPa Calm     93% 0 mm
05:39 5.7 °C 4.7 °C 1012.8 hPa Calm     93% 0 mm
05:44 5.6 °C 4.5 °C 1012.8 hPa Calm     93% 0 mm
05:49 5.4 °C 4.3 °C 1013.1 hPa Calm     93% 0 mm
05:54 5.3 °C 4.3 °C 1012.8 hPa Calm     93% 0 mm
05:59 5.3 °C 4.3 °C 1012.8 hPa Calm     93% 0 mm
06:04 5.2 °C 4.2 °C 1013.1 hPa Calm     93% 0 mm
06:09 5 °C 3.8 °C 1012.8 hPa Calm     92% 0 mm
06:14 5.1 °C 4 °C 1012.8 hPa Calm     93% 0 mm
06:19 4.9 °C 3.8 °C 1012.8 hPa Calm     92% 0 mm
06:24 4.8 °C 3.7 °C 1012.8 hPa Calm     92% 0 mm
06:29 4.8 °C 3.8 °C 1012.8 hPa Calm     93% 0 mm
06:34 4.8 °C 3.8 °C 1012.8 hPa Calm     93% 0 mm
06:39 5.2 °C 4.1 °C 1012.8 hPa Calm     93% 0 mm
06:44 5.3 °C 4.1 °C 1012.8 hPa Calm     92% 0 mm
06:49 5.3 °C 4.1 °C 1012.8 hPa Calm     92% 0 mm
06:54 5.4 °C 4.1 °C 1012.8 hPa Calm     91% 0 mm
06:59 5.4 °C 4.1 °C 1012.8 hPa Calm     91% 0 mm
07:04 5.3 °C 3.8 °C 1012.8 hPa Calm     90% 0 mm
07:09 4.9 °C 3.2 °C 1012.8 hPa Calm     89% 0 mm
07:14 4.7 °C 3.2 °C 1012.8 hPa Calm     90% 0 mm
07:19 4.7 °C 3.3 °C 1013.1 hPa Calm     91% 0 mm
07:24 4.6 °C 3.2 °C 1013.1 hPa Calm     91% 0 mm
07:29 4.7 °C 3.4 °C 1012.8 hPa Calm     91% 0 mm
07:34 5.2 °C 3.9 °C 1012.8 hPa Calm     91% 0 mm
07:39 5.5 °C 4 °C 1012.8 hPa Calm     90% 0 mm
07:44 5.6 °C 4.1 °C 1012.8 hPa Calm     90% 0 mm
07:49 5.6 °C 3.9 °C 1012.8 hPa Calm     89% 0 mm
07:54 5.8 °C 3.9 °C 1013.1 hPa Calm     88% 0 mm
07:59 5.9 °C 4.1 °C 1012.8 hPa Calm     88% 0 mm
08:04 6.5 °C 4.3 °C 1012.8 hPa Calm     86% 0 mm
08:09 7 °C 4.5 °C 1012.8 hPa Calm     84% 0 mm
08:14 7.3 °C 4.6 °C 1012.8 hPa Calm     83% 0 mm
08:19 7.5 °C 4.6 °C 1012.8 hPa Calm     82% 0 mm
08:24 7.7 °C 4.6 °C 1012.8 hPa Calm     81% 0 mm
08:29 7.9 °C 4.5 °C 1012.8 hPa Calm     79% 0 mm
08:34 8.3 °C 4.8 °C 1012.8 hPa Calm     79% 0 mm
08:39 8.7 °C 5.1 °C 1012.8 hPa South 1.6 km/h 4.8 km/h 78% 0 mm
08:44 9.1 °C 5.2 °C 1012.8 hPa South 1.6 km/h 1.6 km/h 77% 0 mm
08:49 9.6 °C 4.9 °C 1012.4 hPa Calm   3.2 km/h 73% 0 mm
08:54 9.8 °C 5.4 °C 1012.4 hPa South 1.6 km/h 4.8 km/h 74% 0 mm
08:59 10.2 °C 5.6 °C 1012.4 hPa Calm     73% 0 mm
09:04 10.5 °C 5.4 °C 1012.4 hPa Calm   3.2 km/h 71% 0 mm
09:09 10.8 °C 5.9 °C 1012.1 hPa Calm     72% 0 mm
09:14 11.1 °C 6 °C 1012.1 hPa South 1.6 km/h 4.8 km/h 71% 0 mm
09:19 11.2 °C 5.7 °C 1012.1 hPa South 1.6 km/h 4.8 km/h 69% 0 mm
09:24 11.6 °C 6.3 °C 1012.1 hPa Calm   8 km/h 70% 0 mm
09:29 11.8 °C 6.3 °C 1012.1 hPa South 3.2 km/h 8 km/h 69% 0 mm
09:34 12 °C 6.7 °C 1012.1 hPa South 4.8 km/h 8 km/h 70% 0 mm
09:39 12.4 °C 6.7 °C 1012.1 hPa SSW 4.8 km/h 8 km/h 68% 0 mm
09:44 12.3 °C 6.4 °C 1012.1 hPa South 6.4 km/h 11.3 km/h 67% 0 mm
09:49 12.4 °C 6.7 °C 1012.1 hPa SSW 4.8 km/h 11.3 km/h 68% 0 mm
09:54 12.9 °C 7.2 °C 1012.1 hPa SSW 4.8 km/h 9.7 km/h 68% 0 mm
09:59 13.3 °C 7.3 °C 1012.1 hPa SW 4.8 km/h 9.7 km/h 67% 0 mm
10:04 13.3 °C 7.1 °C 1012.1 hPa SW 4.8 km/h 9.7 km/h 66% 0 mm
10:09 13.7 °C 7.4 °C 1011.7 hPa South 8 km/h 8 km/h 66% 0 mm
10:14 14.2 °C 7.9 °C 1011.7 hPa South 9.7 km/h 9.7 km/h 66% 0 mm
10:19 14.3 °C 7.8 °C 1011.7 hPa SW 8 km/h 12.9 km/h 65% 0 mm
10:24 14.8 °C 8.3 °C 1011.7 hPa SW 6.4 km/h 12.9 km/h 65% 0 mm
10:29 14.9 °C 8.1 °C 1011.7 hPa SSW 6.4 km/h 14.5 km/h 64% 0 mm
10:34 14.6 °C 8.3 °C 1011.4 hPa SW 6.4 km/h 14.5 km/h 66% 0 mm
10:39 14.3 °C 8 °C 1011.4 hPa SW 12.9 km/h 14.5 km/h 66% 0 mm
10:44 14.2 °C 8.2 °C 1011.7 hPa SSW 4.8 km/h 14.5 km/h 67% 0 mm
10:49 14.3 °C 8.3 °C 1011.4 hPa SW 11.3 km/h 12.9 km/h 67% 0 mm
10:54 14.2 °C 8.4 °C 1011.4 hPa SW 8 km/h 14.5 km/h 68% 0 mm
10:59 14.2 °C 8.6 °C 1011.4 hPa SW 8 km/h 14.5 km/h 69% 0 mm
11:04 14.1 °C 8.2 °C 1011.4 hPa SW 8 km/h 17.7 km/h 68% 0 mm
11:09 14.1 °C 8.5 °C 1011.4 hPa WSW 9.7 km/h 17.7 km/h 69% 0 mm
11:14 14.2 °C 8.3 °C 1011.4 hPa WSW 9.7 km/h 17.7 km/h 68% 0 mm
11:19 14.2 °C 8.6 °C 1011.1 hPa WSW 9.7 km/h 17.7 km/h 69% 0 mm
11:24 14.4 °C 8.8 °C 1011.4 hPa SW 3.2 km/h 17.7 km/h 69% 0 mm
11:29 14.7 °C 9.1 °C 1011.4 hPa SW 11.3 km/h 20.9 km/h 69% 0 mm
11:34 14.8 °C 9.2 °C 1011.1 hPa WSW 9.7 km/h 17.7 km/h 69% 0 mm
11:39 14.8 °C 9.4 °C 1011.1 hPa SW 9.7 km/h 17.7 km/h 70% 0 mm
11:44 15.2 °C 9.3 °C 1011.1 hPa WSW 8 km/h 14.5 km/h 68% 0 mm
11:49 15.2 °C 9.5 °C 1011.1 hPa WSW 6.4 km/h 17.7 km/h 69% 0 mm
11:54 14.9 °C 9.3 °C 1011.1 hPa WSW 9.7 km/h 17.7 km/h 69% 0 mm
11:59 14.6 °C 9.2 °C 1011.1 hPa WSW 11.3 km/h 24.1 km/h 70% 0 mm
12:04 14.6 °C 9.4 °C 1011.1 hPa WSW 12.9 km/h 24.1 km/h 71% 0 mm
12:09 14.7 °C 9.7 °C 1011.1 hPa WSW 11.3 km/h 24.1 km/h 72% 0 mm
12:14 14.5 °C 9.5 °C 1011.1 hPa WSW 11.3 km/h 24.1 km/h 72% 0 mm
12:19 14.3 °C 9.8 °C 1011.1 hPa WSW 9.7 km/h 19.3 km/h 74% 0 mm
12:24 14.1 °C 9.7 °C 1010.7 hPa WNW 6.4 km/h 17.7 km/h 75% 0 mm
12:29 13.7 °C 9.6 °C 1010.7 hPa WNW 8 km/h 22.5 km/h 76% 0 mm
12:34 13.7 °C 9.7 °C 1010.7 hPa WSW 12.9 km/h 19.3 km/h 77% 0 mm
12:39 13.6 °C 9.6 °C 1010.7 hPa West 4.8 km/h 20.9 km/h 77% 0 mm
12:44 13.5 °C 9.6 °C 1010.7 hPa West 3.2 km/h 16.1 km/h 77% 0 mm
12:49 13.4 °C 9.4 °C 1010.7 hPa West 6.4 km/h 14.5 km/h 77% 0 mm
12:54 13.2 °C 9.3 °C 1010.7 hPa West 6.4 km/h 14.5 km/h 77% 0 mm
12:59 13.3 °C 9.3 °C 1010.7 hPa WSW 4.8 km/h 11.3 km/h 77% 0 mm
13:04 13.3 °C 9.3 °C 1010.7 hPa WSW 6.4 km/h 11.3 km/h 77% 0 mm
13:09 13.3 °C 9.3 °C 1010.7 hPa SW 6.4 km/h 14.5 km/h 77% 0 mm
13:14 13.3 °C 9.3 °C 1010.7 hPa WSW 3.2 km/h 11.3 km/h 77% 0 mm
13:19 13.3 °C 9.5 °C 1010.7 hPa SW 6.4 km/h 12.9 km/h 78% 0 mm
13:24 13.3 °C 9.6 °C 1010.7 hPa SW 4.8 km/h 16.1 km/h 78% 0 mm
13:29 13.5 °C 9.7 °C 1010.4 hPa WSW 8 km/h 16.1 km/h 78% 0 mm
13:34 13.6 °C 9.8 °C 1010.4 hPa WSW 8 km/h 14.5 km/h 78% 0 mm
13:39 13.6 °C 9.8 °C 1010.4 hPa WSW 8 km/h 14.5 km/h 78% 0 mm
13:44 13.7 °C 9.9 °C 1010.4 hPa WSW 8 km/h 14.5 km/h 78% 0 mm
13:49 13.8 °C 10 °C 1010.4 hPa WSW 8 km/h 14.5 km/h 78% 0 mm
13:54 13.8 °C 9.9 °C 1010.4 hPa WSW 8 km/h 16.1 km/h 77% 0 mm
13:59 13.6 °C 9.8 °C 1010.4 hPa SW 8 km/h 16.1 km/h 78% 0 mm
14:04 13.4 °C 9.6 °C 1010.4 hPa SW 8 km/h 16.1 km/h 78% 0 mm
14:09 12.9 °C 9.2 °C 1010.4 hPa SW 12.9 km/h 14.5 km/h 78% 0 mm
14:14 12.8 °C 9.3 °C 1010 hPa WSW 8 km/h 14.5 km/h 79% 0 mm
14:19 12.7 °C 9.3 °C 1010 hPa SW 3.2 km/h 14.5 km/h 80% 0 mm
14:24 12.6 °C 9.2 °C 1010 hPa SW 4.8 km/h 12.9 km/h 80% 0 mm
14:29 12.6 °C 9.2 °C 1010 hPa WSW 8 km/h 14.5 km/h 80% 0 mm
14:34 12.4 °C 9.3 °C 1010 hPa WSW 8 km/h 17.7 km/h 81% 0 mm
14:39 12.3 °C 9.2 °C 1010 hPa WSW 8 km/h 19.3 km/h 81% 0 mm
14:44 12.3 °C 9.1 °C 1010 hPa WSW 8 km/h 19.3 km/h 81% 0 mm
14:49 12.2 °C 9.1 °C 1010 hPa SW 8 km/h 16.1 km/h 81% 0 mm
14:54 12.1 °C 9.1 °C 1010 hPa SW 8 km/h 16.1 km/h 82% 0 mm
14:59 12.2 °C 9.2 °C 1010 hPa SW 6.4 km/h 16.1 km/h 82% 0 mm
15:04 12.3 °C 9.3 °C 1010 hPa WSW 4.8 km/h 11.3 km/h 82% 0 mm
15:09 12.2 °C 9.2 °C 1010 hPa West 3.2 km/h 9.7 km/h 82% 0 mm
15:14 12.2 °C 9.2 °C 1010 hPa SSW 6.4 km/h 11.3 km/h 82% 0 mm
15:19 12.1 °C 9.3 °C 1009.7 hPa West 6.4 km/h 12.9 km/h 83% 0 mm
15:24 12.2 °C 9.4 °C 1009.7 hPa WSW 1.6 km/h 9.7 km/h 83% 0 mm
15:29 12.2 °C 9.4 °C 1009.7 hPa SW 6.4 km/h 9.7 km/h 83% 0 mm
15:34 12 °C 9.2 °C 1009.7 hPa WSW 4.8 km/h 9.7 km/h 83% 0 mm
15:39 11.9 °C 9.2 °C 1009.7 hPa SW 4.8 km/h 9.7 km/h 83% 0 mm
15:44 11.9 °C 9.3 °C 1009.7 hPa WSW 4.8 km/h 9.7 km/h 84% 0 mm
15:49 11.8 °C 9.2 °C 1009.7 hPa SW 4.8 km/h 9.7 km/h 84% 0 mm
15:54 11.8 °C 9.2 °C 1009.7 hPa WSW 4.8 km/h 8 km/h 84% 0 mm
15:59 11.8 °C 9.2 °C 1009.7 hPa SW 8 km/h 11.3 km/h 84% 0 mm
16:04 11.8 °C 9.2 °C 1009.7 hPa SW 3.2 km/h 8 km/h 84% 0 mm
16:09 11.7 °C 9.1 °C 1009.7 hPa South 6.4 km/h 6.4 km/h 84% 0 mm
16:14 11.7 °C 9.3 °C 1009.7 hPa SSW 3.2 km/h 6.4 km/h 85% 0 mm
16:19 11.8 °C 9.4 °C 1009.4 hPa SSW 3.2 km/h 6.4 km/h 85% 0 mm
16:24 12 °C 9.6 °C 1009.4 hPa SW 1.6 km/h 9.7 km/h 85% 0 mm
16:29 12.2 °C 9.7 °C 1009.4 hPa SW 1.6 km/h 6.4 km/h 85% 0 mm
16:34 12.3 °C 9.8 °C 1009.4 hPa SW 3.2 km/h 6.4 km/h 85% 0 mm
16:39 12.3 °C 9.9 °C 1009.4 hPa WSW 1.6 km/h 6.4 km/h 85% 0 mm
16:44 12.4 °C 9.9 °C 1009.4 hPa West 4.8 km/h 11.3 km/h 85% 0 mm
16:49 12.4 °C 10 °C 1009.4 hPa WSW 4.8 km/h 11.3 km/h 85% 0 mm
16:54 12.4 °C 10 °C 1009 hPa WSW 3.2 km/h 8 km/h 85% 0 mm
16:59 12.4 °C 10 °C 1009.4 hPa WSW 4.8 km/h 9.7 km/h 85% 0 mm
17:04 12.4 °C 10 °C 1009 hPa WSW 4.8 km/h 9.7 km/h 85% 0 mm
17:09 12.5 °C 10.1 °C 1009 hPa WSW 3.2 km/h 8 km/h 85% 0 mm
17:14 12.6 °C 10.1 °C 1009 hPa WSW 1.6 km/h 8 km/h 85% 0 mm
17:19 12.4 °C 10 °C 1009 hPa Calm   6.4 km/h 85% 0 mm
17:24 12.4 °C 10.1 °C 1009 hPa Calm   8 km/h 86% 0 mm
17:29 12.4 °C 10.1 °C 1009 hPa West 1.6 km/h 6.4 km/h 86% 0 mm
17:34 12.4 °C 10.1 °C 1009 hPa West 3.2 km/h 6.4 km/h 86% 0 mm
17:39 12.3 °C 10.1 °C 1009 hPa West 6.4 km/h 9.7 km/h 86% 0 mm
17:44 12.3 °C 10.1 °C 1009 hPa WSW 1.6 km/h 8 km/h 86% 0 mm
17:49 12.3 °C 10.1 °C 1009 hPa WSW 3.2 km/h 8 km/h 86% 0 mm
17:54 12.3 °C 10 °C 1009 hPa WSW 3.2 km/h 6.4 km/h 86% 0 mm
17:59 12.3 °C 10 °C 1009 hPa WSW 3.2 km/h 4.8 km/h 86% 0 mm
18:04 12.3 °C 10 °C 1009 hPa WSW 3.2 km/h 6.4 km/h 86% 0 mm
18:09 12.2 °C 9.9 °C 1009 hPa WSW 4.8 km/h 6.4 km/h 86% 0 mm
18:14 12.1 °C 9.8 °C 1009 hPa WSW 3.2 km/h 6.4 km/h 86% 0 mm
18:19 12.1 °C 9.8 °C 1009 hPa SW 3.2 km/h 6.4 km/h 86% 0 mm
18:24 12 °C 9.7 °C 1009 hPa SW 1.6 km/h 3.2 km/h 86% 0 mm
18:29 12 °C 9.7 °C 1009 hPa SW 3.2 km/h 3.2 km/h 86% 0 mm
18:34 11.9 °C 9.6 °C 1009 hPa Calm   4.8 km/h 86% 0 mm
18:39 11.8 °C 9.6 °C 1009 hPa Calm   6.4 km/h 86% 0 mm
18:44 11.8 °C 9.5 °C 1009 hPa SW 3.2 km/h 6.4 km/h 86% 0 mm
18:49 11.7 °C 9.6 °C 1009 hPa SW 3.2 km/h 6.4 km/h 87% 0 mm
18:54 11.7 °C 9.6 °C 1009.4 hPa SW 3.2 km/h 6.4 km/h 87% 0 mm
18:59 11.7 °C 9.4 °C 1009 hPa WSW 1.6 km/h 6.4 km/h 86% 0 mm
19:04 11.7 °C 9.6 °C 1009.4 hPa WSW 1.6 km/h 6.4 km/h 87% 0 mm
19:09 11.6 °C 9.5 °C 1009.4 hPa Calm   3.2 km/h 87% 0 mm
19:14 11.6 °C 9.5 °C 1009 hPa Calm   1.6 km/h 87% 0 mm
19:19 11.6 °C 9.5 °C 1009 hPa Calm     87% 0 mm
19:24 11.6 °C 9.5 °C 1009 hPa WSW 1.6 km/h 4.8 km/h 87% 0 mm
19:29 11.6 °C 9.4 °C 1009 hPa Calm   3.2 km/h 87% 0 mm
19:34 11.5 °C 9.4 °C 1009 hPa Calm   1.6 km/h 87% 0 mm
19:39 11.6 °C 9.4 °C 1009 hPa SSW 1.6 km/h 4.8 km/h 87% 0 mm
19:44 11.6 °C 9.4 °C 1009 hPa SSW 1.6 km/h 4.8 km/h 87% 0 mm
19:49 11.7 °C 9.6 °C 1009 hPa SSW 3.2 km/h 4.8 km/h 87% 0 mm
19:54 11.7 °C 9.6 °C 1009 hPa SSW 3.2 km/h 6.4 km/h 87% 0 mm
19:59 11.7 °C 9.4 °C 1009 hPa Calm   3.2 km/h 86% 0 mm
20:04 11.7 °C 9.4 °C 1009 hPa SSW 1.6 km/h 3.2 km/h 86% 0 mm
20:09 11.7 °C 9.6 °C 1009 hPa Calm   3.2 km/h 87% 0 mm
20:14 11.7 °C 9.6 °C 1009 hPa Calm   1.6 km/h 87% 0 mm
20:19 11.7 °C 9.6 °C 1009 hPa Calm   1.6 km/h 87% 0 mm
20:24 11.8 °C 9.7 °C 1009 hPa Calm     87% 0 mm
20:29 11.8 °C 9.7 °C 1009 hPa SSW 1.6 km/h 3.2 km/h 87% 0 mm
20:34 11.8 °C 9.7 °C 1009 hPa Calm   3.2 km/h 87% 0 mm
20:39 11.8 °C 9.7 °C 1009 hPa SSW 1.6 km/h 3.2 km/h 87% 0 mm
20:44 11.9 °C 9.8 °C 1009 hPa SSW 1.6 km/h 4.8 km/h 87% 0 mm
20:49 12 °C 9.9 °C 1009 hPa SSW 1.6 km/h 4.8 km/h 87% 0 mm
20:54 12.1 °C 10 °C 1009 hPa SSW 3.2 km/h 6.4 km/h 87% 0 mm
20:59 12.2 °C 10.1 °C 1009 hPa SSW 4.8 km/h 6.4 km/h 87% 0 mm
21:04 12.3 °C 10.2 °C 1008.7 hPa South 6.4 km/h 8 km/h 87% 0 mm
21:09 12.6 °C 10.4 °C 1009 hPa South 3.2 km/h 8 km/h 87% 0 mm
21:14 12.7 °C 10.6 °C 1008.7 hPa SSW 4.8 km/h 9.7 km/h 87% 0 mm
21:19 12.9 °C 10.8 °C 1008.7 hPa SSW 4.8 km/h 11.3 km/h 87% 0 mm
21:24 13 °C 10.9 °C 1008.7 hPa SSW 4.8 km/h 11.3 km/h 87% 0 mm
21:29 13.1 °C 10.8 °C 1008.7 hPa SSW 6.4 km/h 9.7 km/h 86% 0 mm
21:34 13.2 °C 10.9 °C 1008.7 hPa SSW 3.2 km/h 9.7 km/h 86% 0 mm
21:39 13.3 °C 11.1 °C 1008.4 hPa SSW 3.2 km/h 9.7 km/h 86% 0 mm
21:44 13.4 °C 10.9 °C 1008.7 hPa SSW 4.8 km/h 12.9 km/h 85% 0 mm
21:49 13.4 °C 10.9 °C 1008.7 hPa SSW 6.4 km/h 14.5 km/h 85% 0 mm
21:54 13.5 °C 11 °C 1008.4 hPa South 11.3 km/h 11.3 km/h 85% 0 mm
21:59 13.6 °C 10.9 °C 1008.4 hPa SSW 4.8 km/h 11.3 km/h 84% 0 mm
22:04 13.6 °C 10.9 °C 1008.4 hPa SSW 6.4 km/h 11.3 km/h 84% 0 mm
22:09 13.6 °C 10.9 °C 1008.4 hPa SSW 3.2 km/h 12.9 km/h 84% 0 mm
22:14 13.7 °C 11.1 °C 1008.4 hPa SSW 6.4 km/h 12.9 km/h 84% 0 mm
22:19 13.8 °C 10.9 °C 1008.4 hPa SSW 6.4 km/h 12.9 km/h 83% 0 mm
22:24 13.9 °C 11.1 °C 1008 hPa SSW 6.4 km/h 16.1 km/h 83% 0 mm
22:29 13.9 °C 10.9 °C 1008 hPa SW 6.4 km/h 16.1 km/h 82% 0 mm
22:34 13.9 °C 10.9 °C 1008 hPa South 6.4 km/h 11.3 km/h 82% 0 mm
22:39 14 °C 11 °C 1008 hPa South 6.4 km/h 11.3 km/h 82% 0 mm
22:44 14 °C 11 °C 1008 hPa SSW 4.8 km/h 9.7 km/h 82% 0 mm
22:49 13.9 °C 10.9 °C 1008 hPa SSW 4.8 km/h 11.3 km/h 82% 0 mm
22:54 13.9 °C 10.9 °C 1007.7 hPa SSW 4.8 km/h 11.3 km/h 82% 0 mm
22:59 14.1 °C 11.1 °C 1007.7 hPa SSW 6.4 km/h 12.9 km/h 82% 0 mm
23:04 14.1 °C 11.1 °C 1007.7 hPa SSW 6.4 km/h 12.9 km/h 82% 0 mm
23:09 14.1 °C 11.1 °C 1007.7 hPa SSW 4.8 km/h 12.9 km/h 82% 0 mm
23:14 14.2 °C 11.1 °C 1007.7 hPa SW 8 km/h 16.1 km/h 82% 0 mm
23:19 14.2 °C 10.9 °C 1007.3 hPa SSW 6.4 km/h 16.1 km/h 81% 0 mm
23:24 14.1 °C 11.1 °C 1007.3 hPa SSW 8 km/h 12.9 km/h 82% 0 mm
23:29 14 °C 11 °C 1007.3 hPa West 6.4 km/h 12.9 km/h 82% 0 mm
23:34 13.9 °C 10.9 °C 1007.3 hPa SW 3.2 km/h 11.3 km/h 82% 0 mm
23:39 13.9 °C 10.9 °C 1007.3 hPa SW 3.2 km/h 12.9 km/h 82% 0 mm
23:44 13.8 °C 10.8 °C 1007.3 hPa SSW 4.8 km/h 11.3 km/h 82% 0 mm
23:49 13.8 °C 10.9 °C 1007.3 hPa SSW 4.8 km/h 11.3 km/h 83% 0 mm
23:54 13.7 °C 10.9 °C 1007.3 hPa South 3.2 km/h 9.7 km/h 83% 0 mm
23:59 13.7 °C 10.9 °C 1007.3 hPa SSW 4.8 km/h 8 km/h 83% 0 mm
Buffalo, New York, USA
Compliments of Weather Underground - 2.5 mb